sensor_id;sensor_type;location;lat;lon;timestamp;P1;durP1;ratioP1;P2;durP2;ratioP2
7989;SDS011;4040;42.848;23.034;2023-01-29T00:00:06;20.60;;;10.00;;
7989;SDS011;4040;42.848;23.034;2023-01-29T00:02:35;21.87;;;10.70;;
7989;SDS011;4040;42.848;23.034;2023-01-29T00:05:03;19.03;;;10.13;;
7989;SDS011;4040;42.848;23.034;2023-01-29T00:07:31;17.23;;;10.03;;
7989;SDS011;4040;42.848;23.034;2023-01-29T00:10:00;15.37;;;8.80;;
7989;SDS011;4040;42.848;23.034;2023-01-29T00:12:27;18.30;;;9.50;;
7989;SDS011;4040;42.848;23.034;2023-01-29T00:14:55;14.17;;;8.37;;
7989;SDS011;4040;42.848;23.034;2023-01-29T00:17:22;16.43;;;8.83;;
7989;SDS011;4040;42.848;23.034;2023-01-29T00:19:49;15.67;;;9.57;;
7989;SDS011;4040;42.848;23.034;2023-01-29T00:22:16;15.07;;;8.40;;
7989;SDS011;4040;42.848;23.034;2023-01-29T00:24:43;16.60;;;9.37;;
7989;SDS011;4040;42.848;23.034;2023-01-29T00:27:12;15.50;;;8.70;;
7989;SDS011;4040;42.848;23.034;2023-01-29T00:29:39;15.60;;;8.00;;
7989;SDS011;4040;42.848;23.034;2023-01-29T00:32:07;15.20;;;8.03;;
7989;SDS011;4040;42.848;23.034;2023-01-29T00:34:35;20.93;;;9.63;;
7989;SDS011;4040;42.848;23.034;2023-01-29T00:37:02;19.80;;;9.47;;
7989;SDS011;4040;42.848;23.034;2023-01-29T00:39:36;28.23;;;12.40;;
7989;SDS011;4040;42.848;23.034;2023-01-29T00:42:04;17.67;;;8.90;;
7989;SDS011;4040;42.848;23.034;2023-01-29T00:44:50;21.50;;;10.67;;
7989;SDS011;4040;42.848;23.034;2023-01-29T00:47:23;21.10;;;10.07;;
7989;SDS011;4040;42.848;23.034;2023-01-29T00:49:57;15.63;;;8.37;;
7989;SDS011;4040;42.848;23.034;2023-01-29T00:52:25;34.23;;;13.17;;
7989;SDS011;4040;42.848;23.034;2023-01-29T00:54:53;17.57;;;8.83;;
7989;SDS011;4040;42.848;23.034;2023-01-29T00:57:22;21.17;;;9.27;;
7989;SDS011;4040;42.848;23.034;2023-01-29T00:59:52;23.90;;;11.17;;
7989;SDS011;4040;42.848;23.034;2023-01-29T01:02:19;18.73;;;10.40;;
7989;SDS011;4040;42.848;23.034;2023-01-29T01:05:05;21.33;;;10.83;;
7989;SDS011;4040;42.848;23.034;2023-01-29T01:07:34;16.40;;;9.47;;
7989;SDS011;4040;42.848;23.034;2023-01-29T01:10:01;12.07;;;7.43;;
7989;SDS011;4040;42.848;23.034;2023-01-29T01:12:46;12.57;;;8.00;;
7989;SDS011;4040;42.848;23.034;2023-01-29T01:15:16;13.60;;;7.30;;
7989;SDS011;4040;42.848;23.034;2023-01-29T01:17:44;13.47;;;8.03;;
7989;SDS011;4040;42.848;23.034;2023-01-29T01:20:13;12.90;;;7.17;;
7989;SDS011;4040;42.848;23.034;2023-01-29T01:22:40;12.37;;;6.90;;
7989;SDS011;4040;42.848;23.034;2023-01-29T01:25:08;15.30;;;8.00;;
7989;SDS011;4040;42.848;23.034;2023-01-29T01:27:35;16.33;;;8.73;;
7989;SDS011;4040;42.848;23.034;2023-01-29T01:30:06;12.87;;;7.90;;
7989;SDS011;4040;42.848;23.034;2023-01-29T01:32:37;14.97;;;7.77;;
7989;SDS011;4040;42.848;23.034;2023-01-29T01:35:05;10.83;;;7.17;;
7989;SDS011;4040;42.848;23.034;2023-01-29T01:37:34;11.97;;;7.20;;
7989;SDS011;4040;42.848;23.034;2023-01-29T01:40:03;10.07;;;6.63;;
7989;SDS011;4040;42.848;23.034;2023-01-29T01:42:37;10.87;;;6.30;;
7989;SDS011;4040;42.848;23.034;2023-01-29T01:45:05;13.03;;;7.20;;
7989;SDS011;4040;42.848;23.034;2023-01-29T01:47:36;13.10;;;7.60;;
7989;SDS011;4040;42.848;23.034;2023-01-29T01:50:08;8.63;;;5.90;;
7989;SDS011;4040;42.848;23.034;2023-01-29T01:52:41;7.27;;;5.43;;
7989;SDS011;4040;42.848;23.034;2023-01-29T01:55:11;9.63;;;5.63;;
7989;SDS011;4040;42.848;23.034;2023-01-29T01:57:40;8.20;;;5.37;;
7989;SDS011;4040;42.848;23.034;2023-01-29T02:00:12;10.17;;;6.77;;
7989;SDS011;4040;42.848;23.034;2023-01-29T02:02:44;9.40;;;6.30;;
7989;SDS011;4040;42.848;23.034;2023-01-29T02:05:30;10.27;;;6.33;;
7989;SDS011;4040;42.848;23.034;2023-01-29T02:08:17;6.90;;;5.30;;
7989;SDS011;4040;42.848;23.034;2023-01-29T02:11:09;10.07;;;5.57;;
7989;SDS011;4040;42.848;23.034;2023-01-29T02:13:36;10.07;;;5.07;;
7989;SDS011;4040;42.848;23.034;2023-01-29T02:16:04;8.53;;;5.07;;
7989;SDS011;4040;42.848;23.034;2023-01-29T02:18:33;7.40;;;5.10;;
7989;SDS011;4040;42.848;23.034;2023-01-29T02:21:09;7.80;;;5.47;;
7989;SDS011;4040;42.848;23.034;2023-01-29T02:27:05;8.30;;;5.03;;
7989;SDS011;4040;42.848;23.034;2023-01-29T02:29:39;7.60;;;4.20;;
7989;SDS011;4040;42.848;23.034;2023-01-29T02:32:18;7.83;;;5.00;;
7989;SDS011;4040;42.848;23.034;2023-01-29T02:34:52;6.40;;;4.43;;
7989;SDS011;4040;42.848;23.034;2023-01-29T02:37:49;6.13;;;4.60;;
7989;SDS011;4040;42.848;23.034;2023-01-29T02:40:23;5.30;;;4.33;;
7989;SDS011;4040;42.848;23.034;2023-01-29T02:42:57;7.37;;;5.20;;
7989;SDS011;4040;42.848;23.034;2023-01-29T02:45:35;6.83;;;5.13;;
7989;SDS011;4040;42.848;23.034;2023-01-29T02:48:11;9.83;;;5.40;;
7989;SDS011;4040;42.848;23.034;2023-01-29T02:50:44;6.97;;;4.97;;
7989;SDS011;4040;42.848;23.034;2023-01-29T02:53:15;7.40;;;4.57;;
7989;SDS011;4040;42.848;23.034;2023-01-29T02:55:50;6.83;;;4.57;;
7989;SDS011;4040;42.848;23.034;2023-01-29T02:58:24;6.93;;;4.00;;
7989;SDS011;4040;42.848;23.034;2023-01-29T03:00:58;5.23;;;4.23;;
7989;SDS011;4040;42.848;23.034;2023-01-29T03:03:30;4.57;;;3.77;;
7989;SDS011;4040;42.848;23.034;2023-01-29T03:06:01;6.23;;;4.07;;
7989;SDS011;4040;42.848;23.034;2023-01-29T03:08:33;5.40;;;4.07;;
7989;SDS011;4040;42.848;23.034;2023-01-29T03:11:07;5.37;;;3.80;;
7989;SDS011;4040;42.848;23.034;2023-01-29T03:13:40;4.93;;;3.73;;
7989;SDS011;4040;42.848;23.034;2023-01-29T03:16:16;6.00;;;4.10;;
7989;SDS011;4040;42.848;23.034;2023-01-29T03:18:50;4.93;;;3.80;;
7989;SDS011;4040;42.848;23.034;2023-01-29T03:21:21;7.03;;;4.43;;
7989;SDS011;4040;42.848;23.034;2023-01-29T03:24:12;8.73;;;4.80;;
7989;SDS011;4040;42.848;23.034;2023-01-29T03:27:00;4.87;;;4.07;;
7989;SDS011;4040;42.848;23.034;2023-01-29T03:29:47;6.00;;;4.13;;
7989;SDS011;4040;42.848;23.034;2023-01-29T03:32:35;6.40;;;3.80;;
7989;SDS011;4040;42.848;23.034;2023-01-29T03:35:03;8.33;;;4.73;;
7989;SDS011;4040;42.848;23.034;2023-01-29T03:37:35;7.37;;;4.83;;
7989;SDS011;4040;42.848;23.034;2023-01-29T03:40:07;5.47;;;3.77;;
7989;SDS011;4040;42.848;23.034;2023-01-29T03:42:39;6.67;;;3.83;;
7989;SDS011;4040;42.848;23.034;2023-01-29T03:45:18;8.27;;;3.60;;
7989;SDS011;4040;42.848;23.034;2023-01-29T03:47:55;8.83;;;4.60;;
7989;SDS011;4040;42.848;23.034;2023-01-29T03:50:33;6.53;;;4.20;;
7989;SDS011;4040;42.848;23.034;2023-01-29T03:53:06;13.13;;;8.20;;
7989;SDS011;4040;42.848;23.034;2023-01-29T03:55:40;6.33;;;4.67;;
7989;SDS011;4040;42.848;23.034;2023-01-29T03:58:22;7.70;;;5.00;;
7989;SDS011;4040;42.848;23.034;2023-01-29T04:00:56;9.17;;;5.83;;
7989;SDS011;4040;42.848;23.034;2023-01-29T04:03:30;9.67;;;6.20;;
7989;SDS011;4040;42.848;23.034;2023-01-29T04:06:03;8.63;;;4.83;;
7989;SDS011;4040;42.848;23.034;2023-01-29T04:08:36;10.97;;;5.80;;
7989;SDS011;4040;42.848;23.034;2023-01-29T04:11:11;9.20;;;6.07;;
7989;SDS011;4040;42.848;23.034;2023-01-29T04:13:42;10.67;;;6.23;;
7989;SDS011;4040;42.848;23.034;2023-01-29T04:16:13;7.37;;;5.10;;
7989;SDS011;4040;42.848;23.034;2023-01-29T04:18:45;7.23;;;4.80;;
7989;SDS011;4040;42.848;23.034;2023-01-29T04:21:13;13.60;;;6.40;;
7989;SDS011;4040;42.848;23.034;2023-01-29T04:23:42;11.13;;;5.67;;
7989;SDS011;4040;42.848;23.034;2023-01-29T04:26:15;9.77;;;6.30;;
7989;SDS011;4040;42.848;23.034;2023-01-29T04:28:53;15.17;;;7.33;;
7989;SDS011;4040;42.848;23.034;2023-01-29T04:31:37;7.73;;;4.70;;
7989;SDS011;4040;42.848;23.034;2023-01-29T04:34:11;7.53;;;5.30;;
7989;SDS011;4040;42.848;23.034;2023-01-29T04:36:48;16.83;;;7.50;;
7989;SDS011;4040;42.848;23.034;2023-01-29T04:39:21;10.43;;;5.93;;
7989;SDS011;4040;42.848;23.034;2023-01-29T04:41:54;10.40;;;5.90;;
7989;SDS011;4040;42.848;23.034;2023-01-29T04:44:30;17.37;;;7.80;;
7989;SDS011;4040;42.848;23.034;2023-01-29T04:47:04;16.77;;;7.50;;
7989;SDS011;4040;42.848;23.034;2023-01-29T04:49:44;7.47;;;4.77;;
7989;SDS011;4040;42.848;23.034;2023-01-29T04:52:16;12.90;;;6.33;;
7989;SDS011;4040;42.848;23.034;2023-01-29T04:54:52;11.07;;;6.03;;
7989;SDS011;4040;42.848;23.034;2023-01-29T04:57:26;9.87;;;5.50;;
7989;SDS011;4040;42.848;23.034;2023-01-29T05:00:01;10.70;;;6.57;;
7989;SDS011;4040;42.848;23.034;2023-01-29T05:02:35;12.57;;;6.07;;
7989;SDS011;4040;42.848;23.034;2023-01-29T05:05:06;16.77;;;7.23;;
7989;SDS011;4040;42.848;23.034;2023-01-29T05:07:36;18.23;;;8.90;;
7989;SDS011;4040;42.848;23.034;2023-01-29T05:10:05;13.33;;;7.07;;
7989;SDS011;4040;42.848;23.034;2023-01-29T05:12:36;13.17;;;7.17;;
7989;SDS011;4040;42.848;23.034;2023-01-29T05:15:06;10.67;;;5.93;;
7989;SDS011;4040;42.848;23.034;2023-01-29T05:17:37;6.43;;;5.03;;
7989;SDS011;4040;42.848;23.034;2023-01-29T05:20:07;6.33;;;5.00;;
7989;SDS011;4040;42.848;23.034;2023-01-29T05:22:36;7.87;;;5.07;;
7989;SDS011;4040;42.848;23.034;2023-01-29T05:25:08;6.13;;;4.63;;
7989;SDS011;4040;42.848;23.034;2023-01-29T05:27:45;6.90;;;5.27;;
7989;SDS011;4040;42.848;23.034;2023-01-29T05:30:30;8.03;;;4.90;;
7989;SDS011;4040;42.848;23.034;2023-01-29T05:32:58;6.50;;;4.97;;
7989;SDS011;4040;42.848;23.034;2023-01-29T05:35:27;9.10;;;6.07;;
7989;SDS011;4040;42.848;23.034;2023-01-29T05:37:55;11.50;;;7.37;;
7989;SDS011;4040;42.848;23.034;2023-01-29T05:40:23;11.80;;;7.83;;
7989;SDS011;4040;42.848;23.034;2023-01-29T05:42:51;13.90;;;7.77;;
7989;SDS011;4040;42.848;23.034;2023-01-29T05:45:18;10.80;;;7.03;;
7989;SDS011;4040;42.848;23.034;2023-01-29T05:47:46;7.73;;;5.67;;
7989;SDS011;4040;42.848;23.034;2023-01-29T05:50:14;9.57;;;6.00;;
7989;SDS011;4040;42.848;23.034;2023-01-29T05:52:43;8.57;;;5.57;;
7989;SDS011;4040;42.848;23.034;2023-01-29T05:55:10;6.83;;;5.20;;
7989;SDS011;4040;42.848;23.034;2023-01-29T05:57:38;7.87;;;6.07;;
7989;SDS011;4040;42.848;23.034;2023-01-29T06:00:06;6.73;;;5.10;;
7989;SDS011;4040;42.848;23.034;2023-01-29T06:02:37;8.47;;;5.83;;
7989;SDS011;4040;42.848;23.034;2023-01-29T06:05:05;7.80;;;5.80;;
7989;SDS011;4040;42.848;23.034;2023-01-29T06:07:33;7.67;;;5.57;;
7989;SDS011;4040;42.848;23.034;2023-01-29T06:10:01;8.40;;;5.33;;
7989;SDS011;4040;42.848;23.034;2023-01-29T06:12:29;6.73;;;5.07;;
7989;SDS011;4040;42.848;23.034;2023-01-29T06:14:56;7.87;;;5.47;;
7989;SDS011;4040;42.848;23.034;2023-01-29T06:17:24;8.43;;;5.10;;
7989;SDS011;4040;42.848;23.034;2023-01-29T06:19:51;9.70;;;5.60;;
7989;SDS011;4040;42.848;23.034;2023-01-29T06:22:18;7.70;;;5.57;;
7989;SDS011;4040;42.848;23.034;2023-01-29T06:24:45;8.47;;;5.70;;
7989;SDS011;4040;42.848;23.034;2023-01-29T06:27:14;8.23;;;5.50;;
7989;SDS011;4040;42.848;23.034;2023-01-29T06:29:41;7.70;;;5.67;;
7989;SDS011;4040;42.848;23.034;2023-01-29T06:32:09;9.47;;;6.00;;
7989;SDS011;4040;42.848;23.034;2023-01-29T06:34:36;11.07;;;6.53;;
7989;SDS011;4040;42.848;23.034;2023-01-29T06:37:03;10.83;;;7.20;;
7989;SDS011;4040;42.848;23.034;2023-01-29T06:39:32;8.70;;;6.00;;
7989;SDS011;4040;42.848;23.034;2023-01-29T06:41:59;10.43;;;7.00;;
7989;SDS011;4040;42.848;23.034;2023-01-29T06:44:28;9.30;;;5.60;;
7989;SDS011;4040;42.848;23.034;2023-01-29T06:46:55;7.87;;;5.17;;
7989;SDS011;4040;42.848;23.034;2023-01-29T06:49:22;11.80;;;7.07;;
7989;SDS011;4040;42.848;23.034;2023-01-29T06:51:49;11.80;;;7.70;;
7989;SDS011;4040;42.848;23.034;2023-01-29T06:54:17;13.17;;;7.17;;
7989;SDS011;4040;42.848;23.034;2023-01-29T06:56:44;11.53;;;7.70;;
7989;SDS011;4040;42.848;23.034;2023-01-29T06:59:11;14.07;;;7.20;;
7989;SDS011;4040;42.848;23.034;2023-01-29T07:01:40;14.60;;;8.90;;
7989;SDS011;4040;42.848;23.034;2023-01-29T07:04:08;12.43;;;7.80;;
7989;SDS011;4040;42.848;23.034;2023-01-29T07:06:36;11.40;;;6.87;;
7989;SDS011;4040;42.848;23.034;2023-01-29T07:09:03;13.03;;;7.47;;
7989;SDS011;4040;42.848;23.034;2023-01-29T07:11:30;12.10;;;7.13;;
7989;SDS011;4040;42.848;23.034;2023-01-29T07:14:01;17.73;;;9.03;;
7989;SDS011;4040;42.848;23.034;2023-01-29T07:16:29;13.33;;;8.20;;
7989;SDS011;4040;42.848;23.034;2023-01-29T07:18:58;16.00;;;8.70;;
7989;SDS011;4040;42.848;23.034;2023-01-29T07:21:25;13.47;;;8.33;;
7989;SDS011;4040;42.848;23.034;2023-01-29T07:23:52;18.47;;;9.40;;
7989;SDS011;4040;42.848;23.034;2023-01-29T07:26:19;12.67;;;8.23;;
7989;SDS011;4040;42.848;23.034;2023-01-29T07:28:47;12.57;;;7.40;;
7989;SDS011;4040;42.848;23.034;2023-01-29T07:31:14;12.80;;;7.37;;
7989;SDS011;4040;42.848;23.034;2023-01-29T07:33:42;12.77;;;8.47;;
7989;SDS011;4040;42.848;23.034;2023-01-29T07:36:11;15.30;;;7.87;;
7989;SDS011;4040;42.848;23.034;2023-01-29T07:38:39;16.13;;;8.27;;
7989;SDS011;4040;42.848;23.034;2023-01-29T07:41:07;15.97;;;9.00;;
7989;SDS011;4040;42.848;23.034;2023-01-29T07:43:35;14.87;;;7.87;;
7989;SDS011;4040;42.848;23.034;2023-01-29T07:46:02;14.97;;;8.30;;
7989;SDS011;4040;42.848;23.034;2023-01-29T07:48:30;16.67;;;9.90;;
7989;SDS011;4040;42.848;23.034;2023-01-29T07:50:57;20.33;;;10.37;;
7989;SDS011;4040;42.848;23.034;2023-01-29T07:53:27;16.50;;;8.10;;
7989;SDS011;4040;42.848;23.034;2023-01-29T07:55:54;19.33;;;11.33;;
7989;SDS011;4040;42.848;23.034;2023-01-29T07:58:22;15.77;;;9.23;;
7989;SDS011;4040;42.848;23.034;2023-01-29T08:00:49;18.47;;;9.63;;
7989;SDS011;4040;42.848;23.034;2023-01-29T08:03:17;18.47;;;9.93;;
7989;SDS011;4040;42.848;23.034;2023-01-29T08:05:45;13.90;;;7.70;;
7989;SDS011;4040;42.848;23.034;2023-01-29T08:08:13;15.60;;;9.37;;
7989;SDS011;4040;42.848;23.034;2023-01-29T08:10:42;24.37;;;12.63;;
7989;SDS011;4040;42.848;23.034;2023-01-29T08:13:09;15.63;;;8.80;;
7989;SDS011;4040;42.848;23.034;2023-01-29T08:15:36;15.10;;;9.63;;
7989;SDS011;4040;42.848;23.034;2023-01-29T08:18:03;14.67;;;9.50;;
7989;SDS011;4040;42.848;23.034;2023-01-29T08:20:31;14.50;;;8.33;;
7989;SDS011;4040;42.848;23.034;2023-01-29T08:22:59;13.17;;;7.83;;
7989;SDS011;4040;42.848;23.034;2023-01-29T08:25:26;17.47;;;9.40;;
7989;SDS011;4040;42.848;23.034;2023-01-29T08:27:56;15.07;;;8.87;;
7989;SDS011;4040;42.848;23.034;2023-01-29T08:30:24;17.83;;;10.23;;
7989;SDS011;4040;42.848;23.034;2023-01-29T08:32:53;14.43;;;8.83;;
7989;SDS011;4040;42.848;23.034;2023-01-29T08:35:20;16.53;;;9.73;;
7989;SDS011;4040;42.848;23.034;2023-01-29T08:37:54;23.43;;;9.77;;
7989;SDS011;4040;42.848;23.034;2023-01-29T08:40:23;15.57;;;9.33;;
7989;SDS011;4040;42.848;23.034;2023-01-29T08:42:51;14.57;;;9.27;;
7989;SDS011;4040;42.848;23.034;2023-01-29T08:45:19;21.03;;;10.53;;
7989;SDS011;4040;42.848;23.034;2023-01-29T08:47:47;15.77;;;7.70;;
7989;SDS011;4040;42.848;23.034;2023-01-29T08:50:15;12.20;;;8.30;;
7989;SDS011;4040;42.848;23.034;2023-01-29T08:52:43;16.23;;;8.60;;
7989;SDS011;4040;42.848;23.034;2023-01-29T08:55:10;21.47;;;11.17;;
7989;SDS011;4040;42.848;23.034;2023-01-29T08:57:38;21.30;;;9.77;;
7989;SDS011;4040;42.848;23.034;2023-01-29T09:00:06;24.97;;;13.00;;
7989;SDS011;4040;42.848;23.034;2023-01-29T09:02:36;21.90;;;12.63;;
7989;SDS011;4040;42.848;23.034;2023-01-29T09:05:04;25.77;;;13.63;;
7989;SDS011;4040;42.848;23.034;2023-01-29T09:07:32;28.60;;;16.73;;
7989;SDS011;4040;42.848;23.034;2023-01-29T09:09:59;24.27;;;14.27;;
7989;SDS011;4040;42.848;23.034;2023-01-29T09:12:27;30.47;;;14.77;;
7989;SDS011;4040;42.848;23.034;2023-01-29T09:14:54;63.00;;;22.73;;
7989;SDS011;4040;42.848;23.034;2023-01-29T09:17:21;32.50;;;16.67;;
7989;SDS011;4040;42.848;23.034;2023-01-29T09:19:50;15.37;;;9.03;;
7989;SDS011;4040;42.848;23.034;2023-01-29T09:22:17;27.27;;;11.40;;
7989;SDS011;4040;42.848;23.034;2023-01-29T09:24:45;22.73;;;11.63;;
7989;SDS011;4040;42.848;23.034;2023-01-29T09:27:12;20.10;;;11.90;;
7989;SDS011;4040;42.848;23.034;2023-01-29T09:29:39;41.23;;;19.07;;
7989;SDS011;4040;42.848;23.034;2023-01-29T09:32:06;20.03;;;11.87;;
7989;SDS011;4040;42.848;23.034;2023-01-29T09:34:34;28.40;;;14.40;;
7989;SDS011;4040;42.848;23.034;2023-01-29T09:37:02;24.40;;;12.07;;
7989;SDS011;4040;42.848;23.034;2023-01-29T09:39:29;24.97;;;13.73;;
7989;SDS011;4040;42.848;23.034;2023-01-29T09:41:58;21.10;;;12.17;;
7989;SDS011;4040;42.848;23.034;2023-01-29T09:44:42;24.80;;;14.47;;
7989;SDS011;4040;42.848;23.034;2023-01-29T09:47:17;15.10;;;9.37;;
7989;SDS011;4040;42.848;23.034;2023-01-29T09:49:46;20.87;;;12.47;;
7989;SDS011;4040;42.848;23.034;2023-01-29T09:52:19;24.50;;;13.40;;
7989;SDS011;4040;42.848;23.034;2023-01-29T09:54:53;22.97;;;11.47;;
7989;SDS011;4040;42.848;23.034;2023-01-29T09:57:26;40.73;;;16.30;;
7989;SDS011;4040;42.848;23.034;2023-01-29T09:59:58;29.00;;;14.50;;
7989;SDS011;4040;42.848;23.034;2023-01-29T10:02:34;24.50;;;13.23;;
7989;SDS011;4040;42.848;23.034;2023-01-29T10:05:24;25.40;;;12.77;;
7989;SDS011;4040;42.848;23.034;2023-01-29T10:08:09;27.43;;;14.93;;
7989;SDS011;4040;42.848;23.034;2023-01-29T10:11:03;17.30;;;10.43;;
7989;SDS011;4040;42.848;23.034;2023-01-29T10:13:42;25.17;;;13.87;;
7989;SDS011;4040;42.848;23.034;2023-01-29T10:19:10;17.80;;;9.77;;
7989;SDS011;4040;42.848;23.034;2023-01-29T10:21:56;16.40;;;9.77;;
7989;SDS011;4040;42.848;23.034;2023-01-29T10:24:51;25.83;;;12.97;;
7989;SDS011;4040;42.848;23.034;2023-01-29T10:27:24;29.40;;;14.50;;
7989;SDS011;4040;42.848;23.034;2023-01-29T10:29:57;31.87;;;15.10;;
7989;SDS011;4040;42.848;23.034;2023-01-29T10:32:28;23.67;;;13.17;;
7989;SDS011;4040;42.848;23.034;2023-01-29T10:34:59;18.40;;;9.30;;
7989;SDS011;4040;42.848;23.034;2023-01-29T10:37:31;26.33;;;13.30;;
7989;SDS011;4040;42.848;23.034;2023-01-29T10:40:11;28.83;;;14.70;;
7989;SDS011;4040;42.848;23.034;2023-01-29T10:42:46;34.90;;;17.30;;
7989;SDS011;4040;42.848;23.034;2023-01-29T10:45:25;29.10;;;15.10;;
7989;SDS011;4040;42.848;23.034;2023-01-29T10:48:03;23.63;;;12.47;;
7989;SDS011;4040;42.848;23.034;2023-01-29T10:50:54;25.73;;;12.70;;
7989;SDS011;4040;42.848;23.034;2023-01-29T10:53:30;23.23;;;13.07;;
7989;SDS011;4040;42.848;23.034;2023-01-29T10:56:11;21.43;;;12.27;;
7989;SDS011;4040;42.848;23.034;2023-01-29T10:58:50;36.67;;;15.73;;
7989;SDS011;4040;42.848;23.034;2023-01-29T11:01:20;25.13;;;12.73;;
7989;SDS011;4040;42.848;23.034;2023-01-29T11:03:52;28.07;;;13.50;;
7989;SDS011;4040;42.848;23.034;2023-01-29T11:06:23;35.90;;;19.80;;
7989;SDS011;4040;42.848;23.034;2023-01-29T11:08:55;27.83;;;13.77;;
7989;SDS011;4040;42.848;23.034;2023-01-29T11:11:32;23.10;;;12.60;;
7989;SDS011;4040;42.848;23.034;2023-01-29T11:14:08;24.33;;;11.80;;
7989;SDS011;4040;42.848;23.034;2023-01-29T11:16:39;28.07;;;14.70;;
7989;SDS011;4040;42.848;23.034;2023-01-29T11:19:08;31.67;;;13.33;;
7989;SDS011;4040;42.848;23.034;2023-01-29T11:21:49;26.63;;;14.47;;
7989;SDS011;4040;42.848;23.034;2023-01-29T11:24:17;24.07;;;13.47;;
7989;SDS011;4040;42.848;23.034;2023-01-29T11:26:47;26.13;;;12.93;;
7989;SDS011;4040;42.848;23.034;2023-01-29T11:29:36;24.47;;;14.10;;
7989;SDS011;4040;42.848;23.034;2023-01-29T11:32:05;32.93;;;15.83;;
7989;SDS011;4040;42.848;23.034;2023-01-29T11:37:22;34.87;;;15.73;;
7989;SDS011;4040;42.848;23.034;2023-01-29T11:39:56;36.23;;;14.87;;
7989;SDS011;4040;42.848;23.034;2023-01-29T11:42:26;41.53;;;19.87;;
7989;SDS011;4040;42.848;23.034;2023-01-29T11:44:58;38.67;;;18.53;;
7989;SDS011;4040;42.848;23.034;2023-01-29T11:47:26;35.60;;;17.13;;
7989;SDS011;4040;42.848;23.034;2023-01-29T11:49:55;29.50;;;16.03;;
7989;SDS011;4040;42.848;23.034;2023-01-29T11:52:24;49.33;;;19.10;;
7989;SDS011;4040;42.848;23.034;2023-01-29T11:55:02;36.57;;;16.03;;
7989;SDS011;4040;42.848;23.034;2023-01-29T11:57:34;20.67;;;11.20;;
7989;SDS011;4040;42.848;23.034;2023-01-29T12:00:04;23.07;;;10.07;;
7989;SDS011;4040;42.848;23.034;2023-01-29T12:02:34;23.13;;;13.07;;
7989;SDS011;4040;42.848;23.034;2023-01-29T12:05:04;28.67;;;13.77;;
7989;SDS011;4040;42.848;23.034;2023-01-29T12:07:40;16.60;;;8.80;;
7989;SDS011;4040;42.848;23.034;2023-01-29T12:13:13;20.87;;;12.20;;
7989;SDS011;4040;42.848;23.034;2023-01-29T12:15:50;21.83;;;10.33;;
7989;SDS011;4040;42.848;23.034;2023-01-29T12:18:38;17.27;;;9.13;;
7989;SDS011;4040;42.848;23.034;2023-01-29T12:21:10;17.40;;;9.73;;
7989;SDS011;4040;42.848;23.034;2023-01-29T12:23:45;22.47;;;10.10;;
7989;SDS011;4040;42.848;23.034;2023-01-29T12:26:20;18.50;;;10.00;;
7989;SDS011;4040;42.848;23.034;2023-01-29T12:28:58;21.03;;;10.20;;
7989;SDS011;4040;42.848;23.034;2023-01-29T12:31:42;18.07;;;10.07;;
7989;SDS011;4040;42.848;23.034;2023-01-29T12:34:18;18.70;;;10.63;;
7989;SDS011;4040;42.848;23.034;2023-01-29T12:36:51;22.70;;;11.23;;
7989;SDS011;4040;42.848;23.034;2023-01-29T12:39:21;17.63;;;11.13;;
7989;SDS011;4040;42.848;23.034;2023-01-29T12:41:49;26.77;;;14.50;;
7989;SDS011;4040;42.848;23.034;2023-01-29T12:44:24;17.60;;;10.13;;
7989;SDS011;4040;42.848;23.034;2023-01-29T12:46:57;20.97;;;10.57;;
7989;SDS011;4040;42.848;23.034;2023-01-29T12:49:30;20.13;;;11.40;;
7989;SDS011;4040;42.848;23.034;2023-01-29T12:52:01;16.00;;;8.80;;
7989;SDS011;4040;42.848;23.034;2023-01-29T12:54:34;18.47;;;10.47;;
7989;SDS011;4040;42.848;23.034;2023-01-29T12:57:07;28.63;;;14.07;;
7989;SDS011;4040;42.848;23.034;2023-01-29T12:59:46;21.63;;;11.57;;
7989;SDS011;4040;42.848;23.034;2023-01-29T13:02:21;21.47;;;9.67;;
7989;SDS011;4040;42.848;23.034;2023-01-29T13:04:58;36.80;;;16.67;;
7989;SDS011;4040;42.848;23.034;2023-01-29T13:07:30;26.23;;;13.23;;
7989;SDS011;4040;42.848;23.034;2023-01-29T13:10:06;26.17;;;12.63;;
7989;SDS011;4040;42.848;23.034;2023-01-29T13:12:38;31.77;;;14.20;;
7989;SDS011;4040;42.848;23.034;2023-01-29T13:15:16;26.27;;;12.30;;
7989;SDS011;4040;42.848;23.034;2023-01-29T13:17:50;25.80;;;12.50;;
7989;SDS011;4040;42.848;23.034;2023-01-29T13:20:22;18.60;;;10.90;;
7989;SDS011;4040;42.848;23.034;2023-01-29T13:22:53;27.13;;;14.33;;
7989;SDS011;4040;42.848;23.034;2023-01-29T13:25:23;40.60;;;16.27;;
7989;SDS011;4040;42.848;23.034;2023-01-29T13:27:50;39.00;;;18.10;;
7989;SDS011;4040;42.848;23.034;2023-01-29T13:30:27;35.27;;;15.93;;
7989;SDS011;4040;42.848;23.034;2023-01-29T13:32:55;24.50;;;12.50;;
7989;SDS011;4040;42.848;23.034;2023-01-29T13:35:33;35.30;;;18.23;;
7989;SDS011;4040;42.848;23.034;2023-01-29T13:38:03;20.43;;;10.93;;
7989;SDS011;4040;42.848;23.034;2023-01-29T13:40:31;26.43;;;13.90;;
7989;SDS011;4040;42.848;23.034;2023-01-29T13:43:00;40.97;;;17.60;;
7989;SDS011;4040;42.848;23.034;2023-01-29T13:45:32;29.70;;;13.93;;
7989;SDS011;4040;42.848;23.034;2023-01-29T13:48:08;33.80;;;13.90;;
7989;SDS011;4040;42.848;23.034;2023-01-29T13:50:43;23.23;;;11.87;;
7989;SDS011;4040;42.848;23.034;2023-01-29T13:53:17;33.27;;;15.17;;
7989;SDS011;4040;42.848;23.034;2023-01-29T13:55:47;29.70;;;13.27;;
7989;SDS011;4040;42.848;23.034;2023-01-29T13:58:15;24.07;;;12.37;;
7989;SDS011;4040;42.848;23.034;2023-01-29T14:09:29;21.37;;;12.47;;
7989;SDS011;4040;42.848;23.034;2023-01-29T14:11:58;30.37;;;16.20;;
7989;SDS011;4040;42.848;23.034;2023-01-29T14:17:28;25.10;;;13.50;;
7989;SDS011;4040;42.848;23.034;2023-01-29T14:19:57;34.70;;;14.00;;
7989;SDS011;4040;42.848;23.034;2023-01-29T14:22:29;32.73;;;15.20;;
7989;SDS011;4040;42.848;23.034;2023-01-29T14:24:57;24.93;;;13.53;;
7989;SDS011;4040;42.848;23.034;2023-01-29T14:27:28;23.27;;;11.63;;
7989;SDS011;4040;42.848;23.034;2023-01-29T14:29:57;22.70;;;12.97;;
7989;SDS011;4040;42.848;23.034;2023-01-29T14:32:26;20.10;;;11.17;;
7989;SDS011;4040;42.848;23.034;2023-01-29T14:34:56;23.70;;;12.87;;
7989;SDS011;4040;42.848;23.034;2023-01-29T14:37:28;20.40;;;11.37;;
7989;SDS011;4040;42.848;23.034;2023-01-29T14:40:06;23.10;;;13.17;;
7989;SDS011;4040;42.848;23.034;2023-01-29T14:42:43;22.17;;;12.70;;
7989;SDS011;4040;42.848;23.034;2023-01-29T14:45:24;29.00;;;14.10;;
7989;SDS011;4040;42.848;23.034;2023-01-29T14:47:59;25.17;;;13.33;;
7989;SDS011;4040;42.848;23.034;2023-01-29T14:53:29;25.83;;;14.33;;
7989;SDS011;4040;42.848;23.034;2023-01-29T14:56:09;25.60;;;13.03;;
7989;SDS011;4040;42.848;23.034;2023-01-29T14:58:41;18.07;;;10.27;;
7989;SDS011;4040;42.848;23.034;2023-01-29T15:01:19;21.40;;;12.57;;
7989;SDS011;4040;42.848;23.034;2023-01-29T15:03:52;27.73;;;14.00;;
7989;SDS011;4040;42.848;23.034;2023-01-29T15:06:26;26.70;;;12.57;;
7989;SDS011;4040;42.848;23.034;2023-01-29T15:09:02;19.43;;;11.20;;
7989;SDS011;4040;42.848;23.034;2023-01-29T15:11:39;19.77;;;10.93;;
7989;SDS011;4040;42.848;23.034;2023-01-29T15:14:20;16.87;;;10.23;;
7989;SDS011;4040;42.848;23.034;2023-01-29T15:17:00;17.93;;;9.87;;
7989;SDS011;4040;42.848;23.034;2023-01-29T15:19:35;20.33;;;10.57;;
7989;SDS011;4040;42.848;23.034;2023-01-29T15:22:05;22.73;;;12.50;;
7989;SDS011;4040;42.848;23.034;2023-01-29T15:24:35;22.20;;;11.43;;
7989;SDS011;4040;42.848;23.034;2023-01-29T15:27:04;22.40;;;12.90;;
7989;SDS011;4040;42.848;23.034;2023-01-29T15:29:32;23.00;;;12.47;;
7989;SDS011;4040;42.848;23.034;2023-01-29T15:32:00;20.20;;;11.33;;
7989;SDS011;4040;42.848;23.034;2023-01-29T15:34:28;27.63;;;13.53;;
7989;SDS011;4040;42.848;23.034;2023-01-29T15:36:57;30.43;;;14.13;;
7989;SDS011;4040;42.848;23.034;2023-01-29T15:39:24;23.50;;;13.63;;